sensor_id;sensor_type;location;lat;lon;timestamp;pressure;altitude;pressure_sealevel;temperature;humidity
10712;BME280;5407;51.234;6.804;2023-02-22T00:00:13;101028.25;;;24.29;38.43
10712;BME280;5407;51.234;6.804;2023-02-22T00:02:47;101023.50;;;24.30;38.47
10712;BME280;5407;51.234;6.804;2023-02-22T00:05:15;101023.50;;;24.30;38.53
10712;BME280;5407;51.234;6.804;2023-02-22T00:07:45;101012.91;;;24.28;38.51
10712;BME280;5407;51.234;6.804;2023-02-22T00:10:13;101023.94;;;24.28;38.39
10712;BME280;5407;51.234;6.804;2023-02-22T00:12:46;101010.94;;;24.29;38.31
10712;BME280;5407;51.234;6.804;2023-02-22T00:15:16;101014.09;;;24.27;38.29
10712;BME280;5407;51.234;6.804;2023-02-22T00:17:44;101018.41;;;24.28;38.30
10712;BME280;5407;51.234;6.804;2023-02-22T00:20:12;101013.34;;;24.27;38.42
10712;BME280;5407;51.234;6.804;2023-02-22T00:22:40;101008.22;;;24.25;38.37
10712;BME280;5407;51.234;6.804;2023-02-22T00:25:07;101015.75;;;24.25;38.08
10712;BME280;5407;51.234;6.804;2023-02-22T00:27:34;101014.94;;;24.24;38.36
10712;BME280;5407;51.234;6.804;2023-02-22T00:30:01;101002.38;;;24.23;38.32
10712;BME280;5407;51.234;6.804;2023-02-22T00:32:31;100995.31;;;24.22;38.15
10712;BME280;5407;51.234;6.804;2023-02-22T00:34:58;101009.88;;;24.23;38.15
10712;BME280;5407;51.234;6.804;2023-02-22T00:37:25;101001.25;;;24.21;38.42
10712;BME280;5407;51.234;6.804;2023-02-22T00:39:56;100999.69;;;24.20;38.13
10712;BME280;5407;51.234;6.804;2023-02-22T00:42:22;100996.16;;;24.19;38.18
10712;BME280;5407;51.234;6.804;2023-02-22T00:44:50;100996.16;;;24.19;38.15
10712;BME280;5407;51.234;6.804;2023-02-22T00:47:17;100996.16;;;24.19;38.18
10712;BME280;5407;51.234;6.804;2023-02-22T00:49:45;100989.88;;;24.19;38.26
10712;BME280;5407;51.234;6.804;2023-02-22T00:52:13;100987.88;;;24.19;38.03
10712;BME280;5407;51.234;6.804;2023-02-22T00:54:40;100984.38;;;24.19;38.10
10712;BME280;5407;51.234;6.804;2023-02-22T00:57:07;100991.84;;;24.18;38.05
10712;BME280;5407;51.234;6.804;2023-02-22T00:59:34;100988.31;;;24.18;37.96
10712;BME280;5407;51.234;6.804;2023-02-22T01:02:01;100984.78;;;24.17;38.13
10712;BME280;5407;51.234;6.804;2023-02-22T01:04:28;100985.97;;;24.16;38.03
10712;BME280;5407;51.234;6.804;2023-02-22T01:06:56;100974.19;;;24.16;37.85
10712;BME280;5407;51.234;6.804;2023-02-22T01:09:26;100973.41;;;24.15;38.07
10712;BME280;5407;51.234;6.804;2023-02-22T01:11:53;100981.25;;;24.17;37.84
10712;BME280;5407;51.234;6.804;2023-02-22T01:14:23;100973.41;;;24.15;38.04
10712;BME280;5407;51.234;6.804;2023-02-22T01:16:51;100959.63;;;24.15;37.98
10712;BME280;5407;51.234;6.804;2023-02-22T01:19:18;100960.41;;;24.16;37.99
10712;BME280;5407;51.234;6.804;2023-02-22T01:21:47;100945.06;;;24.15;37.94
10712;BME280;5407;51.234;6.804;2023-02-22T01:24:16;100954.88;;;24.16;37.90
10712;BME280;5407;51.234;6.804;2023-02-22T01:26:48;100951.78;;;24.14;38.06
10712;BME280;5407;51.234;6.804;2023-02-22T01:29:17;100944.28;;;24.14;38.03
10712;BME280;5407;51.234;6.804;2023-02-22T01:31:50;100959.25;;;24.13;37.96
10712;BME280;5407;51.234;6.804;2023-02-22T01:34:19;100946.69;;;24.12;37.76
10712;BME280;5407;51.234;6.804;2023-02-22T01:36:46;100952.19;;;24.12;37.80
10712;BME280;5407;51.234;6.804;2023-02-22T01:39:14;100950.22;;;24.13;37.80
10712;BME280;5407;51.234;6.804;2023-02-22T01:41:42;100948.22;;;24.13;37.78
10712;BME280;5407;51.234;6.804;2023-02-22T01:44:27;100945.06;;;24.15;37.83
10712;BME280;5407;51.234;6.804;2023-02-22T01:46:55;100942.72;;;24.13;38.02
10712;BME280;5407;51.234;6.804;2023-02-22T01:49:23;100941.97;;;24.13;37.88
10712;BME280;5407;51.234;6.804;2023-02-22T01:51:53;100931.69;;;24.13;37.76
10712;BME280;5407;51.234;6.804;2023-02-22T01:54:24;100937.22;;;24.13;37.93
10712;BME280;5407;51.234;6.804;2023-02-22T01:56:58;100926.97;;;24.14;37.95
10712;BME280;5407;51.234;6.804;2023-02-22T01:59:27;100924.97;;;24.14;38.04
10712;BME280;5407;51.234;6.804;2023-02-22T02:01:58;100929.72;;;24.14;37.79
10712;BME280;5407;51.234;6.804;2023-02-22T02:04:25;100924.97;;;24.14;38.07
10712;BME280;5407;51.234;6.804;2023-02-22T02:06:59;100922.22;;;24.14;38.07
10712;BME280;5407;51.234;6.804;2023-02-22T02:09:31;100923.00;;;24.15;38.23
10712;BME280;5407;51.234;6.804;2023-02-22T02:12:01;100918.25;;;24.15;37.98
10712;BME280;5407;51.234;6.804;2023-02-22T02:14:30;100915.50;;;24.15;38.02
10712;BME280;5407;51.234;6.804;2023-02-22T02:16:57;100918.25;;;24.15;37.89
10712;BME280;5407;51.234;6.804;2023-02-22T02:19:34;100911.19;;;24.14;38.13
10712;BME280;5407;51.234;6.804;2023-02-22T02:22:20;100915.09;;;24.17;38.00
10712;BME280;5407;51.234;6.804;2023-02-22T02:31:38;100903.28;;;24.16;37.86
10712;BME280;5407;51.234;6.804;2023-02-22T02:34:16;100903.72;;;24.15;37.88
10712;BME280;5407;51.234;6.804;2023-02-22T02:36:52;100900.16;;;24.14;38.01
10712;BME280;5407;51.234;6.804;2023-02-22T02:39:26;100900.16;;;24.14;37.99
10712;BME280;5407;51.234;6.804;2023-02-22T02:41:56;100889.94;;;24.15;38.06
10712;BME280;5407;51.234;6.804;2023-02-22T02:44:30;100893.44;;;24.15;37.88
10712;BME280;5407;51.234;6.804;2023-02-22T02:47:00;100887.19;;;24.15;37.83
10712;BME280;5407;51.234;6.804;2023-02-22T02:49:33;100885.19;;;24.15;37.82
10712;BME280;5407;51.234;6.804;2023-02-22T02:52:02;100892.69;;;24.15;38.03
10712;BME280;5407;51.234;6.804;2023-02-22T02:54:31;100885.19;;;24.15;38.07
10712;BME280;5407;51.234;6.804;2023-02-22T02:56:59;100885.19;;;24.15;37.78
10712;BME280;5407;51.234;6.804;2023-02-22T02:59:27;100879.66;;;24.15;37.81
10712;BME280;5407;51.234;6.804;2023-02-22T03:02:12;100874.16;;;24.15;38.06
10712;BME280;5407;51.234;6.804;2023-02-22T03:04:55;100874.94;;;24.16;37.80
10712;BME280;5407;51.234;6.804;2023-02-22T03:07:31;100869.84;;;24.14;37.79
10712;BME280;5407;51.234;6.804;2023-02-22T03:10:16;100871.41;;;24.15;37.77
10712;BME280;5407;51.234;6.804;2023-02-22T03:12:53;100871.06;;;24.13;37.92
10712;BME280;5407;51.234;6.804;2023-02-22T03:15:31;100868.28;;;24.13;37.83
10712;BME280;5407;51.234;6.804;2023-02-22T03:18:02;100861.56;;;24.14;37.84
10712;BME280;5407;51.234;6.804;2023-02-22T03:20:41;100863.56;;;24.14;37.89
10712;BME280;5407;51.234;6.804;2023-02-22T03:23:17;100861.22;;;24.12;37.73
10712;BME280;5407;51.234;6.804;2023-02-22T03:25:51;100860.44;;;24.12;37.71
10712;BME280;5407;51.234;6.804;2023-02-22T03:28:20;100863.97;;;24.12;37.71
10712;BME280;5407;51.234;6.804;2023-02-22T03:30:54;100856.13;;;24.11;37.72
10712;BME280;5407;51.234;6.804;2023-02-22T03:33:28;100860.88;;;24.10;37.76
10712;BME280;5407;51.234;6.804;2023-02-22T03:36:04;100862.09;;;24.09;37.73
10712;BME280;5407;51.234;6.804;2023-02-22T03:38:35;100860.09;;;24.10;37.78
10712;BME280;5407;51.234;6.804;2023-02-22T03:41:06;100864.84;;;24.09;37.70
10712;BME280;5407;51.234;6.804;2023-02-22T03:43:41;100855.78;;;24.09;37.87
10712;BME280;5407;51.234;6.804;2023-02-22T03:46:13;100858.97;;;24.07;37.81
10712;BME280;5407;51.234;6.804;2023-02-22T03:48:45;100856.22;;;24.07;37.74
10712;BME280;5407;51.234;6.804;2023-02-22T03:51:17;100860.94;;;24.07;37.69
10712;BME280;5407;51.234;6.804;2023-02-22T03:53:49;100862.94;;;24.06;37.67
10712;BME280;5407;51.234;6.804;2023-02-22T03:56:21;100864.16;;;24.05;37.74
10712;BME280;5407;51.234;6.804;2023-02-22T03:58:50;100870.41;;;24.06;37.61
10712;BME280;5407;51.234;6.804;2023-02-22T04:01:18;100866.13;;;24.05;37.75
10712;BME280;5407;51.234;6.804;2023-02-22T04:03:48;100868.09;;;24.04;37.71
10712;BME280;5407;51.234;6.804;2023-02-22T04:06:15;100862.59;;;24.04;37.77
10712;BME280;5407;51.234;6.804;2023-02-22T04:08:44;100858.28;;;24.03;37.80
10712;BME280;5407;51.234;6.804;2023-02-22T04:11:11;100862.25;;;24.02;37.70
10712;BME280;5407;51.234;6.804;2023-02-22T04:13:39;100861.03;;;24.03;37.83
10712;BME280;5407;51.234;6.804;2023-02-22T04:16:06;100874.03;;;24.03;37.67
10712;BME280;5407;51.234;6.804;2023-02-22T04:18:34;100867.75;;;24.02;37.71
10712;BME280;5407;51.234;6.804;2023-02-22T04:21:01;100864.22;;;24.02;37.76
10712;BME280;5407;51.234;6.804;2023-02-22T04:23:33;100868.97;;;24.01;38.00
10712;BME280;5407;51.234;6.804;2023-02-22T04:26:02;100860.69;;;24.01;37.81
10712;BME280;5407;51.234;6.804;2023-02-22T04:28:29;100854.75;;;24.03;37.89
10712;BME280;5407;51.234;6.804;2023-02-22T04:31:14;100853.19;;;24.02;37.83
10712;BME280;5407;51.234;6.804;2023-02-22T04:33:42;100844.16;;;24.01;37.94
10712;BME280;5407;51.234;6.804;2023-02-22T04:36:11;100848.47;;;24.02;37.92
10712;BME280;5407;51.234;6.804;2023-02-22T04:38:41;100847.69;;;24.02;37.75
10712;BME280;5407;51.234;6.804;2023-02-22T04:41:09;100846.91;;;24.01;37.91
10712;BME280;5407;51.234;6.804;2023-02-22T04:43:36;100834.69;;;24.02;37.97
10712;BME280;5407;51.234;6.804;2023-02-22T04:46:16;100828.38;;;24.02;38.01
10712;BME280;5407;51.234;6.804;2023-02-22T04:48:44;100834.34;;;24.00;38.04
10712;BME280;5407;51.234;6.804;2023-02-22T04:51:12;100829.59;;;24.01;37.87
10712;BME280;5407;51.234;6.804;2023-02-22T04:53:49;100832.34;;;24.01;37.79
10712;BME280;5407;51.234;6.804;2023-02-22T04:56:18;100832.00;;;23.99;37.77
10712;BME280;5407;51.234;6.804;2023-02-22T04:58:45;100829.59;;;24.01;37.92
10712;BME280;5407;51.234;6.804;2023-02-22T05:01:13;100828.81;;;24.00;37.89
10712;BME280;5407;51.234;6.804;2023-02-22T05:03:41;100823.31;;;24.00;38.02
10712;BME280;5407;51.234;6.804;2023-02-22T05:06:08;100819.34;;;24.01;37.87
10712;BME280;5407;51.234;6.804;2023-02-22T05:08:36;100816.59;;;24.01;37.91
10712;BME280;5407;51.234;6.804;2023-02-22T05:11:03;100809.88;;;24.02;37.91
10712;BME280;5407;51.234;6.804;2023-02-22T05:13:32;100807.13;;;24.02;37.88
10712;BME280;5407;51.234;6.804;2023-02-22T05:15:58;100804.38;;;24.02;37.79
10712;BME280;5407;51.234;6.804;2023-02-22T05:18:26;100807.13;;;24.02;37.89
10712;BME280;5407;51.234;6.804;2023-02-22T05:20:54;100795.31;;;24.02;37.70
10712;BME280;5407;51.234;6.804;2023-02-22T05:23:20;100804.38;;;24.02;37.71
10712;BME280;5407;51.234;6.804;2023-02-22T05:25:47;100803.56;;;24.02;37.64
10712;BME280;5407;51.234;6.804;2023-02-22T05:28:15;100800.41;;;24.03;37.76
10712;BME280;5407;51.234;6.804;2023-02-22T05:30:43;100794.88;;;24.03;37.65
10712;BME280;5407;51.234;6.804;2023-02-22T05:33:10;100795.66;;;24.04;37.62
10712;BME280;5407;51.234;6.804;2023-02-22T05:35:37;100796.09;;;24.02;37.62
10712;BME280;5407;51.234;6.804;2023-02-22T05:38:05;100793.34;;;24.02;37.80
10712;BME280;5407;51.234;6.804;2023-02-22T05:40:32;100782.31;;;24.02;37.59
10712;BME280;5407;51.234;6.804;2023-02-22T05:42:59;100786.28;;;24.01;37.82
10712;BME280;5407;51.234;6.804;2023-02-22T05:45:27;100787.81;;;24.02;37.64
10712;BME280;5407;51.234;6.804;2023-02-22T05:47:55;100794.09;;;24.03;37.56
10712;BME280;5407;51.234;6.804;2023-02-22T05:50:22;100787.03;;;24.02;37.76
10712;BME280;5407;51.234;6.804;2023-02-22T05:52:50;100786.28;;;24.01;37.44
10712;BME280;5407;51.234;6.804;2023-02-22T05:55:19;100791.78;;;24.01;37.42
10712;BME280;5407;51.234;6.804;2023-02-22T05:57:47;100787.50;;;24.00;37.60
10712;BME280;5407;51.234;6.804;2023-02-22T06:00:16;100779.22;;;24.00;37.66
10712;BME280;5407;51.234;6.804;2023-02-22T06:02:43;100783.53;;;24.01;37.61
10712;BME280;5407;51.234;6.804;2023-02-22T06:05:11;100784.72;;;24.00;37.45
10712;BME280;5407;51.234;6.804;2023-02-22T06:07:39;100774.47;;;24.01;37.47
10712;BME280;5407;51.234;6.804;2023-02-22T06:10:06;100778.44;;;24.00;37.67
10712;BME280;5407;51.234;6.804;2023-02-22T06:12:32;100774.56;;;23.97;37.66
10712;BME280;5407;51.234;6.804;2023-02-22T06:14:59;100778.19;;;23.94;37.94
10712;BME280;5407;51.234;6.804;2023-02-22T06:17:26;100779.38;;;23.93;37.94
10712;BME280;5407;51.234;6.804;2023-02-22T06:19:54;100774.72;;;23.90;38.04
10712;BME280;5407;51.234;6.804;2023-02-22T06:22:23;100773.09;;;23.93;38.01
10712;BME280;5407;51.234;6.804;2023-02-22T06:24:49;100773.00;;;23.96;38.03
10712;BME280;5407;51.234;6.804;2023-02-22T06:27:16;100773.34;;;23.98;37.76
10712;BME280;5407;51.234;6.804;2023-02-22T06:29:44;100768.19;;;24.00;37.79
10712;BME280;5407;51.234;6.804;2023-02-22T06:32:12;100770.50;;;24.02;37.84
10712;BME280;5407;51.234;6.804;2023-02-22T06:34:39;100771.28;;;24.02;37.84
10712;BME280;5407;51.234;6.804;2023-02-22T06:37:06;100772.84;;;24.03;37.83
10712;BME280;5407;51.234;6.804;2023-02-22T06:39:35;100774.06;;;24.02;37.97
10712;BME280;5407;51.234;6.804;2023-02-22T06:42:02;100780.66;;;24.05;37.85
10712;BME280;5407;51.234;6.804;2023-02-22T06:44:29;100771.63;;;24.04;37.96
10712;BME280;5407;51.234;6.804;2023-02-22T06:46:55;100780.66;;;24.05;37.99
10712;BME280;5407;51.234;6.804;2023-02-22T06:49:25;100779.91;;;24.04;37.78
10712;BME280;5407;51.234;6.804;2023-02-22T06:51:52;100777.16;;;24.04;37.94
10712;BME280;5407;51.234;6.804;2023-02-22T06:54:19;100773.59;;;24.04;37.73
10712;BME280;5407;51.234;6.804;2023-02-22T06:56:48;100766.88;;;24.05;37.75
10712;BME280;5407;51.234;6.804;2023-02-22T06:59:15;100774.41;;;24.04;37.92
10712;BME280;5407;51.234;6.804;2023-02-22T07:01:43;100771.63;;;24.04;37.71
10712;BME280;5407;51.234;6.804;2023-02-22T07:04:10;100768.88;;;24.04;37.78
10712;BME280;5407;51.234;6.804;2023-02-22T07:06:37;100767.34;;;24.03;37.83
10712;BME280;5407;51.234;6.804;2023-02-22T07:09:03;100767.34;;;24.03;37.64
10712;BME280;5407;51.234;6.804;2023-02-22T07:11:30;100767.34;;;24.03;37.73
10712;BME280;5407;51.234;6.804;2023-02-22T07:13:59;100763.38;;;24.04;37.70
10712;BME280;5407;51.234;6.804;2023-02-22T07:16:25;100767.34;;;24.03;37.68
10712;BME280;5407;51.234;6.804;2023-02-22T07:18:52;100761.03;;;24.03;37.63
10712;BME280;5407;51.234;6.804;2023-02-22T07:21:19;100760.28;;;24.02;37.79
10712;BME280;5407;51.234;6.804;2023-02-22T07:23:50;100759.06;;;24.03;37.86
10712;BME280;5407;51.234;6.804;2023-02-22T07:26:18;100762.59;;;24.04;37.72
10712;BME280;5407;51.234;6.804;2023-02-22T07:28:45;100760.28;;;24.02;37.69
10712;BME280;5407;51.234;6.804;2023-02-22T07:31:15;100760.28;;;24.02;37.71
10712;BME280;5407;51.234;6.804;2023-02-22T07:33:42;100754.75;;;24.02;37.79
10712;BME280;5407;51.234;6.804;2023-02-22T07:36:09;100757.50;;;24.02;37.75
10712;BME280;5407;51.234;6.804;2023-02-22T07:38:38;100751.22;;;24.02;37.67
10712;BME280;5407;51.234;6.804;2023-02-22T07:41:05;100760.28;;;24.02;37.75
10712;BME280;5407;51.234;6.804;2023-02-22T07:43:31;100753.97;;;24.02;37.77
10712;BME280;5407;51.234;6.804;2023-02-22T07:45:59;100750.44;;;24.01;37.75
10712;BME280;5407;51.234;6.804;2023-02-22T07:48:29;100755.97;;;24.01;37.65
10712;BME280;5407;51.234;6.804;2023-02-22T07:50:57;100750.44;;;24.01;37.76
10712;BME280;5407;51.234;6.804;2023-02-22T07:53:25;100750.44;;;24.01;37.68
10712;BME280;5407;51.234;6.804;2023-02-22T07:55:55;100748.44;;;24.02;37.81
10712;BME280;5407;51.234;6.804;2023-02-22T07:58:24;100744.94;;;24.01;37.61
10712;BME280;5407;51.234;6.804;2023-02-22T08:00:52;100741.38;;;24.01;37.76
10712;BME280;5407;51.234;6.804;2023-02-22T08:03:21;100741.38;;;24.01;37.60
10712;BME280;5407;51.234;6.804;2023-02-22T08:05:51;100740.63;;;24.00;37.64
10712;BME280;5407;51.234;6.804;2023-02-22T08:08:19;100740.63;;;24.00;37.67
10712;BME280;5407;51.234;6.804;2023-02-22T08:10:46;100741.84;;;23.99;37.72
10712;BME280;5407;51.234;6.804;2023-02-22T08:13:14;100732.38;;;24.00;37.58
10712;BME280;5407;51.234;6.804;2023-02-22T08:15:41;100734.34;;;24.00;37.67
10712;BME280;5407;51.234;6.804;2023-02-22T08:18:10;100727.28;;;23.99;37.64
10712;BME280;5407;51.234;6.804;2023-02-22T08:20:40;100723.31;;;24.00;37.60
10712;BME280;5407;51.234;6.804;2023-02-22T08:23:11;100723.75;;;23.98;37.65
10712;BME280;5407;51.234;6.804;2023-02-22T08:25:38;100718.59;;;24.00;37.77
10712;BME280;5407;51.234;6.804;2023-02-22T08:28:07;100723.31;;;24.00;37.64
10712;BME280;5407;51.234;6.804;2023-02-22T08:30:35;100712.28;;;24.00;37.67
10712;BME280;5407;51.234;6.804;2023-02-22T08:33:02;100713.06;;;24.00;37.62
10712;BME280;5407;51.234;6.804;2023-02-22T08:35:30;100718.59;;;24.00;37.58
10712;BME280;5407;51.234;6.804;2023-02-22T08:37:59;100714.63;;;24.01;37.63
10712;BME280;5407;51.234;6.804;2023-02-22T08:40:29;100716.25;;;23.99;37.90
10712;BME280;5407;51.234;6.804;2023-02-22T08:42:57;100709.97;;;23.98;37.99
10712;BME280;5407;51.234;6.804;2023-02-22T08:45:23;100715.91;;;23.97;38.01
10712;BME280;5407;51.234;6.804;2023-02-22T08:47:50;100713.16;;;23.97;38.03
10712;BME280;5407;51.234;6.804;2023-02-22T08:50:21;100706.19;;;23.92;38.40
10712;BME280;5407;51.234;6.804;2023-02-22T08:52:49;100710.50;;;23.93;38.40
10712;BME280;5407;51.234;6.804;2023-02-22T08:55:18;100706.59;;;23.91;38.43
10712;BME280;5407;51.234;6.804;2023-02-22T08:57:47;100707.06;;;23.89;38.61
10712;BME280;5407;51.234;6.804;2023-02-22T09:00:16;100713.41;;;23.86;38.65
10712;BME280;5407;51.234;6.804;2023-02-22T09:02:43;100710.16;;;23.91;38.22
10712;BME280;5407;51.234;6.804;2023-02-22T09:05:10;100706.53;;;23.94;38.32
10712;BME280;5407;51.234;6.804;2023-02-22T09:07:40;100715.47;;;23.98;38.20
10712;BME280;5407;51.234;6.804;2023-02-22T09:10:07;100714.63;;;24.01;37.96
10712;BME280;5407;51.234;6.804;2023-02-22T09:12:34;100706.25;;;24.05;37.97
10712;BME280;5407;51.234;6.804;2023-02-22T09:15:03;100705.84;;;24.06;38.18
10712;BME280;5407;51.234;6.804;2023-02-22T09:17:30;100706.19;;;24.08;38.22
10712;BME280;5407;51.234;6.804;2023-02-22T09:19:56;100698.66;;;24.09;37.93
10712;BME280;5407;51.234;6.804;2023-02-22T09:22:23;100705.72;;;24.10;37.97
10712;BME280;5407;51.234;6.804;2023-02-22T09:24:51;100704.53;;;24.11;37.91
10712;BME280;5407;51.234;6.804;2023-02-22T09:27:18;100708.06;;;24.11;38.03
10712;BME280;5407;51.234;6.804;2023-02-22T09:29:47;100705.31;;;24.11;37.96
10712;BME280;5407;51.234;6.804;2023-02-22T09:32:15;100709.63;;;24.12;38.02
10712;BME280;5407;51.234;6.804;2023-02-22T09:34:43;100712.72;;;24.14;38.17
10712;BME280;5407;51.234;6.804;2023-02-22T09:37:10;100706.44;;;24.14;38.12
10712;BME280;5407;51.234;6.804;2023-02-22T09:39:37;100701.69;;;24.14;38.11
10712;BME280;5407;51.234;6.804;2023-02-22T09:42:09;100711.97;;;24.14;38.48
10712;BME280;5407;51.234;6.804;2023-02-22T09:44:43;100702.91;;;24.13;38.08
10712;BME280;5407;51.234;6.804;2023-02-22T09:47:17;100706.94;;;24.09;38.68
10712;BME280;5407;51.234;6.804;2023-02-22T09:49:54;100690.84;;;24.07;38.64
10712;BME280;5407;51.234;6.804;2023-02-22T09:52:26;100699.53;;;24.06;38.69
10712;BME280;5407;51.234;6.804;2023-02-22T09:55:01;100700.75;;;24.05;38.73
10712;BME280;5407;51.234;6.804;2023-02-22T09:57:33;100699.63;;;24.02;38.60
10712;BME280;5407;51.234;6.804;2023-02-22T10:00:04;100696.88;;;24.02;38.77
10712;BME280;5407;51.234;6.804;2023-02-22T10:02:44;100695.69;;;24.03;38.89
10712;BME280;5407;51.234;6.804;2023-02-22T10:05:15;100693.34;;;24.02;38.80
10712;BME280;5407;51.234;6.804;2023-02-22T10:07:50;100692.56;;;24.01;38.91
10712;BME280;5407;51.234;6.804;2023-02-22T10:10:19;100695.00;;;23.99;38.97
10712;BME280;5407;51.234;6.804;2023-02-22T10:12:53;100688.69;;;23.99;38.74
10712;BME280;5407;51.234;6.804;2023-02-22T10:15:43;100687.47;;;24.00;38.68
10712;BME280;5407;51.234;6.804;2023-02-22T10:18:35;100685.41;;;24.04;38.90
10712;BME280;5407;51.234;6.804;2023-02-22T10:21:14;100682.22;;;24.05;38.49
10712;BME280;5407;51.234;6.804;2023-02-22T10:23:52;100677.06;;;24.07;38.67
10712;BME280;5407;51.234;6.804;2023-02-22T10:26:24;100671.97;;;24.06;38.71
10712;BME280;5407;51.234;6.804;2023-02-22T10:28:55;100670.00;;;24.06;38.93
10712;BME280;5407;51.234;6.804;2023-02-22T10:31:29;100677.06;;;24.07;38.98
10712;BME280;5407;51.234;6.804;2023-02-22T10:34:01;100671.22;;;24.05;38.99
10712;BME280;5407;51.234;6.804;2023-02-22T10:36:30;100661.72;;;24.06;39.01
10712;BME280;5407;51.234;6.804;2023-02-22T10:39:02;100663.28;;;24.07;38.76
10712;BME280;5407;51.234;6.804;2023-02-22T10:41:33;100663.63;;;24.09;38.56
10712;BME280;5407;51.234;6.804;2023-02-22T10:44:02;100657.66;;;24.11;38.54
10712;BME280;5407;51.234;6.804;2023-02-22T10:46:31;100648.97;;;24.12;38.75
10712;BME280;5407;51.234;6.804;2023-02-22T10:49:03;100650.19;;;24.11;38.87
10712;BME280;5407;51.234;6.804;2023-02-22T10:51:31;100643.47;;;24.12;38.75
10712;BME280;5407;51.234;6.804;2023-02-22T10:54:17;100641.91;;;24.11;38.94
10712;BME280;5407;51.234;6.804;2023-02-22T10:56:50;100643.53;;;24.09;38.97
10712;BME280;5407;51.234;6.804;2023-02-22T10:59:27;100640.44;;;24.07;39.17
10712;BME280;5407;51.234;6.804;2023-02-22T11:01:54;100640.38;;;24.10;38.59
10712;BME280;5407;51.234;6.804;2023-02-22T11:04:23;100645.53;;;24.08;39.05
10712;BME280;5407;51.234;6.804;2023-02-22T11:07:07;100638.28;;;24.14;38.63
10712;BME280;5407;51.234;6.804;2023-02-22T11:09:46;100631.91;;;24.17;38.61
10712;BME280;5407;51.234;6.804;2023-02-22T11:12:17;100634.25;;;24.19;38.52
10712;BME280;5407;51.234;6.804;2023-02-22T11:14:45;100632.25;;;24.19;38.45
10712;BME280;5407;51.234;6.804;2023-02-22T11:17:17;100628.28;;;24.20;38.54
10712;BME280;5407;51.234;6.804;2023-02-22T11:19:47;100625.88;;;24.22;38.55
10712;BME280;5407;51.234;6.804;2023-02-22T11:22:20;100629.41;;;24.23;38.46
10712;BME280;5407;51.234;6.804;2023-02-22T11:24:51;100635.25;;;24.25;38.41
10712;BME280;5407;51.234;6.804;2023-02-22T11:27:27;100627.75;;;24.25;38.59
10712;BME280;5407;51.234;6.804;2023-02-22T11:30:05;100632.06;;;24.26;38.25
10712;BME280;5407;51.234;6.804;2023-02-22T11:32:34;100623.38;;;24.28;38.31
10712;BME280;5407;51.234;6.804;2023-02-22T11:38:19;100624.91;;;24.29;38.04
10712;BME280;5407;51.234;6.804;2023-02-22T11:41:05;100616.97;;;24.31;37.85
10712;BME280;5407;51.234;6.804;2023-02-22T11:43:33;100615.44;;;24.30;38.21
10712;BME280;5407;51.234;6.804;2023-02-22T11:46:02;100606.38;;;24.29;38.05
10712;BME280;5407;51.234;6.804;2023-02-22T11:48:32;100610.25;;;24.32;38.29
10712;BME280;5407;51.234;6.804;2023-02-22T11:51:11;100610.00;;;24.26;38.54
10712;BME280;5407;51.234;6.804;2023-02-22T11:53:51;100606.56;;;24.22;38.69
10712;BME280;5407;51.234;6.804;2023-02-22T11:56:24;100606.22;;;24.20;38.87
10712;BME280;5407;51.234;6.804;2023-02-22T11:59:00;100603.91;;;24.19;38.87
10712;BME280;5407;51.234;6.804;2023-02-22T12:01:38;100597.63;;;24.18;39.05
10712;BME280;5407;51.234;6.804;2023-02-22T12:04:35;100592.09;;;24.18;38.97
10712;BME280;5407;51.234;6.804;2023-02-22T12:07:23;100597.63;;;24.18;39.10
10712;BME280;5407;51.234;6.804;2023-02-22T12:10:01;100590.22;;;24.15;39.28
10712;BME280;5407;51.234;6.804;2023-02-22T12:12:40;100587.03;;;24.17;39.14
10712;BME280;5407;51.234;6.804;2023-02-22T12:15:12;100595.31;;;24.17;39.13
10712;BME280;5407;51.234;6.804;2023-02-22T12:17:46;100591.75;;;24.16;39.17
10712;BME280;5407;51.234;6.804;2023-02-22T12:20:18;100586.25;;;24.16;39.27
10712;BME280;5407;51.234;6.804;2023-02-22T12:22:57;100590.56;;;24.17;39.27
10712;BME280;5407;51.234;6.804;2023-02-22T12:25:30;100589.34;;;24.18;39.26
10712;BME280;5407;51.234;6.804;2023-02-22T12:28:13;100586.59;;;24.18;39.55
10712;BME280;5407;51.234;6.804;2023-02-22T12:30:43;100581.06;;;24.18;39.77
10712;BME280;5407;51.234;6.804;2023-02-22T12:33:14;100584.16;;;24.20;39.45
10712;BME280;5407;51.234;6.804;2023-02-22T12:35:48;100588.13;;;24.19;39.52
10712;BME280;5407;51.234;6.804;2023-02-22T12:38:21;100588.06;;;24.23;39.43
10712;BME280;5407;51.234;6.804;2023-02-22T12:40:55;100585.28;;;24.23;39.63
10712;BME280;5407;51.234;6.804;2023-02-22T12:43:27;100590.03;;;24.22;39.41
10712;BME280;5407;51.234;6.804;2023-02-22T12:45:59;100583.31;;;24.23;39.62
10712;BME280;5407;51.234;6.804;2023-02-22T12:48:37;100582.09;;;24.24;39.65
10712;BME280;5407;51.234;6.804;2023-02-22T12:51:18;100580.88;;;24.25;39.54
10712;BME280;5407;51.234;6.804;2023-02-22T12:53:55;100582.09;;;24.24;39.59
10712;BME280;5407;51.234;6.804;2023-02-22T12:56:31;100587.94;;;24.26;39.50
10712;BME280;5407;51.234;6.804;2023-02-22T12:59:04;100576.50;;;24.28;39.56
10712;BME280;5407;51.234;6.804;2023-02-22T13:01:36;100578.47;;;24.27;39.44
10712;BME280;5407;51.234;6.804;2023-02-22T13:04:05;100580.00;;;24.28;39.74
10712;BME280;5407;51.234;6.804;2023-02-22T13:06:40;100585.53;;;24.28;39.52
10712;BME280;5407;51.234;6.804;2023-02-22T13:12:11;100579.13;;;24.31;39.56
10712;BME280;5407;51.234;6.804;2023-02-22T13:14:51;100575.16;;;24.32;39.63
10712;BME280;5407;51.234;6.804;2023-02-22T13:17:24;100583.44;;;24.32;39.55
10712;BME280;5407;51.234;6.804;2023-02-22T13:19:56;100567.69;;;24.33;39.69
10712;BME280;5407;51.234;6.804;2023-02-22T13:22:29;100578.25;;;24.34;39.51
10712;BME280;5407;51.234;6.804;2023-02-22T13:25:03;100571.53;;;24.35;39.44
10712;BME280;5407;51.234;6.804;2023-02-22T13:27:37;100570.34;;;24.36;39.47
10712;BME280;5407;51.234;6.804;2023-02-22T13:30:15;100564.84;;;24.36;39.43